createdAt,value
2023-02-19T00:03:50.983Z,24.08
2023-02-19T00:08:52.367Z,24.09
2023-02-19T00:13:53.617Z,24.11
2023-02-19T00:18:54.890Z,24.07
2023-02-19T00:23:56.216Z,24.06
2023-02-19T00:28:57.619Z,24.04
2023-02-19T00:33:58.930Z,24.05
2023-02-19T00:39:00.255Z,23.99
2023-02-19T00:44:01.565Z,24.01
2023-02-19T00:49:02.868Z,24.04
2023-02-19T00:54:04.189Z,23.98
2023-02-19T00:59:05.484Z,23.93
2023-02-19T01:04:07.053Z,23.97
2023-02-19T01:09:08.377Z,23.92
2023-02-19T01:14:09.699Z,23.91
2023-02-19T01:19:11.335Z,23.96
2023-02-19T01:24:12.637Z,23.90
2023-02-19T01:29:13.925Z,23.94
2023-02-19T01:34:15.217Z,23.85
2023-02-19T01:39:16.524Z,23.98
2023-02-19T01:44:17.796Z,23.97
2023-02-19T01:49:19.059Z,23.96
2023-02-19T01:54:20.324Z,23.93
2023-02-19T01:59:21.620Z,23.86
2023-02-19T02:04:22.923Z,23.87
2023-02-19T02:09:24.203Z,23.85
2023-02-19T02:14:25.476Z,23.88
2023-02-19T02:19:26.785Z,23.88
2023-02-19T02:24:28.056Z,23.85
2023-02-19T02:29:29.341Z,23.78
2023-02-19T02:34:30.617Z,23.79
2023-02-19T02:39:31.888Z,23.79
2023-02-19T02:44:33.180Z,23.75
2023-02-19T02:49:34.437Z,23.77
2023-02-19T02:54:35.663Z,23.71
2023-02-19T02:59:36.924Z,23.71
2023-02-19T03:04:38.233Z,23.74
2023-02-19T03:09:39.549Z,23.73
2023-02-19T03:14:40.856Z,23.69
2023-02-19T03:19:42.341Z,23.69
2023-02-19T03:24:43.597Z,23.70
2023-02-19T03:29:44.864Z,23.71
2023-02-19T03:34:46.159Z,23.66
2023-02-19T03:39:47.423Z,23.72
2023-02-19T03:44:48.676Z,23.72
2023-02-19T03:49:50.052Z,23.73
2023-02-19T03:54:51.307Z,23.64
2023-02-19T03:59:52.612Z,23.64
2023-02-19T04:04:53.896Z,23.64
2023-02-19T04:09:55.238Z,23.74
2023-02-19T04:14:56.531Z,23.74
2023-02-19T04:19:57.904Z,23.82
2023-02-19T04:24:59.201Z,23.76
2023-02-19T04:30:00.569Z,23.89
2023-02-19T04:35:01.898Z,23.84
2023-02-19T04:40:03.204Z,23.94
2023-02-19T04:45:04.527Z,23.88
2023-02-19T04:50:05.747Z,23.91
2023-02-19T04:55:07.093Z,23.94
2023-02-19T05:00:08.416Z,23.96
2023-02-19T05:05:09.706Z,23.95
2023-02-19T05:10:11.004Z,23.95
2023-02-19T05:15:12.245Z,23.94
2023-02-19T05:20:13.488Z,23.92
2023-02-19T05:25:14.803Z,23.97
2023-02-19T05:30:16.143Z,23.99
2023-02-19T05:35:17.441Z,24.07
2023-02-19T05:40:18.718Z,24.10
2023-02-19T05:45:20.038Z,24.15
2023-02-19T05:50:21.328Z,24.17
2023-02-19T05:55:22.793Z,24.13
2023-02-19T06:00:24.153Z,24.19
2023-02-19T06:05:25.434Z,24.29
2023-02-19T06:10:26.733Z,24.30
2023-02-19T06:15:28.084Z,24.35
2023-02-19T06:20:29.349Z,22.77
2023-02-19T06:25:30.630Z,22.20
2023-02-19T06:30:32.031Z,23.84
2023-02-19T06:35:33.344Z,24.06
2023-02-19T06:40:34.866Z,24.15
2023-02-19T06:45:36.185Z,24.08
2023-02-19T06:50:37.566Z,24.13
2023-02-19T06:55:38.921Z,24.22
2023-02-19T07:00:40.213Z,24.32
2023-02-19T07:05:41.584Z,24.58
2023-02-19T07:10:42.887Z,24.86
2023-02-19T07:15:44.178Z,25.14
2023-02-19T07:20:45.567Z,25.42
2023-02-19T07:25:46.841Z,25.57
2023-02-19T07:30:48.289Z,25.28
2023-02-19T07:35:49.562Z,25.58
2023-02-19T07:40:50.851Z,25.48
2023-02-19T07:45:52.259Z,25.44
2023-02-19T07:50:53.694Z,25.51
2023-02-19T07:55:55.019Z,25.53
2023-02-19T08:00:56.369Z,25.59
2023-02-19T08:05:57.673Z,25.59
2023-02-19T08:10:58.950Z,25.59
2023-02-19T08:16:15.957Z,25.97
2023-02-19T08:21:19.997Z,25.90
2023-02-19T08:26:21.393Z,25.81
2023-02-19T08:31:22.766Z,25.74
2023-02-19T08:36:24.184Z,25.82
2023-02-19T08:41:25.678Z,25.89
2023-02-19T08:46:26.968Z,26.20
2023-02-19T08:51:28.417Z,26.04
2023-02-19T08:56:29.692Z,27.66
2023-02-19T09:01:31.047Z,27.64
2023-02-19T09:06:32.396Z,25.83
2023-02-19T09:11:33.697Z,25.83
2023-02-19T09:16:34.989Z,25.69
2023-02-19T09:21:36.432Z,25.78
2023-02-19T09:26:38.666Z,25.55
2023-02-19T09:31:40.231Z,25.41
2023-02-19T09:36:41.570Z,25.23
2023-02-19T09:41:42.864Z,25.14
2023-02-19T09:46:44.190Z,25.09
2023-02-19T09:51:45.580Z,24.92
2023-02-19T09:56:46.845Z,24.72
2023-02-19T10:01:48.476Z,24.56
2023-02-19T10:06:49.829Z,24.46
2023-02-19T10:11:51.670Z,24.47
2023-02-19T10:16:52.996Z,24.34
2023-02-19T10:21:54.350Z,24.31
2023-02-19T10:26:55.644Z,24.26
2023-02-19T10:31:57.126Z,24.15
2023-02-19T10:36:58.527Z,24.20
2023-02-19T10:41:59.875Z,24.18
2023-02-19T10:47:01.193Z,24.10
2023-02-19T10:52:02.625Z,23.99
2023-02-19T10:57:03.916Z,23.93
2023-02-19T11:02:05.382Z,23.86
2023-02-19T11:07:06.808Z,23.82
2023-02-19T11:12:09.547Z,23.82
2023-02-19T11:17:11.003Z,23.76
2023-02-19T11:22:12.295Z,23.72
2023-02-19T11:27:13.754Z,23.76
2023-02-19T11:32:15.168Z,23.72
2023-02-19T11:37:16.590Z,23.69
2023-02-19T11:42:17.917Z,23.69
2023-02-19T11:47:19.190Z,23.65
2023-02-19T11:52:20.577Z,23.62
2023-02-19T11:57:21.896Z,23.63
2023-02-19T12:02:23.362Z,23.60
2023-02-19T12:07:24.580Z,23.58
2023-02-19T12:12:25.903Z,23.54
2023-02-19T12:17:27.212Z,23.50
2023-02-19T12:22:28.528Z,23.48
2023-02-19T12:27:29.808Z,23.45
2023-02-19T12:32:31.104Z,23.42
2023-02-19T12:37:32.407Z,23.38
2023-02-19T12:42:33.657Z,23.36
2023-02-19T12:47:35.081Z,23.33
2023-02-19T12:52:36.415Z,23.30
2023-02-19T12:57:37.690Z,23.28
2023-02-19T13:02:39.130Z,23.29
2023-02-19T13:07:40.611Z,23.28
2023-02-19T13:12:41.906Z,23.28
2023-02-19T13:17:43.314Z,23.27
2023-02-19T13:22:44.622Z,23.27
2023-02-19T13:32:52.331Z,23.28
2023-02-19T13:37:53.689Z,23.27
2023-02-19T13:42:55.112Z,23.25
2023-02-19T13:47:56.426Z,23.24
2023-02-19T13:52:57.780Z,23.22
2023-02-19T13:57:59.141Z,23.16
2023-02-19T14:03:00.462Z,23.15
2023-02-19T14:08:01.873Z,23.12
2023-02-19T14:13:03.149Z,23.14
2023-02-19T14:18:04.484Z,23.11
2023-02-19T14:23:05.781Z,23.12
2023-02-19T14:28:07.054Z,23.14
2023-02-19T14:33:10.930Z,23.13
2023-02-19T14:38:12.407Z,23.09
2023-02-19T14:43:13.769Z,23.06
2023-02-19T14:48:15.380Z,23.03
2023-02-19T14:53:16.651Z,23.03
2023-02-19T14:58:17.965Z,23.03
2023-02-19T15:03:19.332Z,22.99
2023-02-19T15:08:20.620Z,22.96
2023-02-19T15:13:21.853Z,22.95
2023-02-19T15:18:23.216Z,22.93
2023-02-19T15:23:24.575Z,22.92
2023-02-19T15:28:25.973Z,22.92
2023-02-19T15:33:27.289Z,22.91
2023-02-19T15:38:28.609Z,22.90
2023-02-19T15:43:30.430Z,22.88
2023-02-19T15:48:31.761Z,22.87
2023-02-19T15:53:33.338Z,22.86
2023-02-19T15:58:34.648Z,22.85
2023-02-19T16:03:36.040Z,22.84
2023-02-19T16:08:37.370Z,22.80
2023-02-19T16:13:38.738Z,22.77
2023-02-19T16:18:39.972Z,22.75
2023-02-19T16:23:41.192Z,22.71
2023-02-19T16:28:42.518Z,22.67
2023-02-19T16:33:43.843Z,22.64
2023-02-19T16:38:45.152Z,22.61
2023-02-19T16:43:46.615Z,22.58
2023-02-19T16:48:47.908Z,22.56
2023-02-19T16:53:49.167Z,22.54
2023-02-19T16:58:50.515Z,22.53
2023-02-19T17:03:51.934Z,22.51
2023-02-19T17:08:53.246Z,22.60
2023-02-19T17:13:54.634Z,22.63
2023-02-19T17:18:55.938Z,22.72
2023-02-19T17:23:57.392Z,22.76
2023-02-19T17:28:58.638Z,22.77
2023-02-19T17:33:59.948Z,22.79
2023-02-19T17:39:01.200Z,22.80
2023-02-19T17:44:02.499Z,22.84
2023-02-19T17:49:03.771Z,22.85
2023-02-19T17:54:06.964Z,22.83
2023-02-19T17:59:09.680Z,22.78
2023-02-19T18:04:11.019Z,22.74
2023-02-19T18:09:12.392Z,22.75
2023-02-19T18:14:13.668Z,22.64
2023-02-19T18:19:14.988Z,22.57
2023-02-19T18:24:16.354Z,22.52
2023-02-19T18:29:17.778Z,22.49
2023-02-19T18:34:19.031Z,22.47
2023-02-19T18:39:20.406Z,22.53
2023-02-19T18:44:21.737Z,22.67
2023-02-19T18:49:23.175Z,22.70
2023-02-19T18:54:24.482Z,22.74
2023-02-19T18:59:25.902Z,22.88
2023-02-19T19:04:27.277Z,22.89
2023-02-19T19:09:28.667Z,22.97
2023-02-19T19:14:29.911Z,23.07
2023-02-19T19:19:31.276Z,23.15
2023-02-19T19:24:34.959Z,23.31
2023-02-19T19:29:36.341Z,23.31
2023-02-19T19:34:37.772Z,23.45
2023-02-19T19:39:39.105Z,23.47
2023-02-19T19:44:40.443Z,23.52
2023-02-19T19:49:41.746Z,23.47
2023-02-19T19:54:43.096Z,23.58
2023-02-19T19:59:44.367Z,23.56
2023-02-19T20:04:45.695Z,23.63
2023-02-19T20:09:46.962Z,23.65
2023-02-19T20:14:48.261Z,23.63
2023-02-19T20:19:49.620Z,23.66
2023-02-19T20:24:50.894Z,23.66
2023-02-19T20:29:52.207Z,23.66
2023-02-19T20:34:53.462Z,23.65
2023-02-19T20:39:54.919Z,23.79
2023-02-19T20:44:56.447Z,23.74
2023-02-19T20:49:57.856Z,23.81
2023-02-19T20:54:59.160Z,23.83
2023-02-19T21:00:00.585Z,23.96
2023-02-19T21:05:01.853Z,23.90
2023-02-19T21:10:03.255Z,23.82
2023-02-19T21:15:04.607Z,23.82
2023-02-19T21:20:05.866Z,23.79
2023-02-19T21:25:07.144Z,23.79
2023-02-19T21:30:08.509Z,23.85
2023-02-19T21:35:09.854Z,23.86
2023-02-19T21:40:11.127Z,23.87
2023-02-19T21:45:12.390Z,23.84
2023-02-19T21:50:13.761Z,23.82
2023-02-19T21:55:15.131Z,23.78
2023-02-19T22:00:16.437Z,23.76
2023-02-19T22:05:17.697Z,23.75
2023-02-19T22:10:18.997Z,23.71
2023-02-19T22:15:20.256Z,23.69
2023-02-19T22:20:21.506Z,23.81
2023-02-19T22:25:22.734Z,23.83
2023-02-19T22:30:24.158Z,23.78
2023-02-19T22:35:25.440Z,23.78
2023-02-19T22:40:26.894Z,23.89
2023-02-19T22:45:28.196Z,23.94
2023-02-19T22:50:29.566Z,23.93
2023-02-19T22:55:30.876Z,24.02
2023-02-19T23:00:32.247Z,23.99
2023-02-19T23:05:33.522Z,23.91
2023-02-19T23:10:34.858Z,23.88
2023-02-19T23:15:36.117Z,23.90
2023-02-19T23:20:37.542Z,23.92
2023-02-19T23:25:38.834Z,23.93
2023-02-19T23:30:40.310Z,23.90
2023-02-19T23:35:41.681Z,23.94
2023-02-19T23:40:43.112Z,23.93
2023-02-19T23:45:44.450Z,23.93
2023-02-19T23:50:45.820Z,23.95
2023-02-19T23:55:47.138Z,23.92
